createdAt,value
2019-01-30T00:00:09.676Z,-0.6
2019-01-30T00:01:12.041Z,-0.6
2019-01-30T00:02:14.884Z,-0.6
2019-01-30T00:03:17.755Z,-0.7
2019-01-30T00:04:20.150Z,-0.7
2019-01-30T00:05:22.666Z,-0.6
2019-01-30T00:06:25.108Z,-0.6
2019-01-30T00:07:28.639Z,-0.6
2019-01-30T00:08:31.046Z,-0.6
2019-01-30T00:09:34.256Z,-0.6
2019-01-30T00:10:36.462Z,-0.6
2019-01-30T00:11:38.820Z,-0.6
2019-01-30T00:12:42.843Z,-0.6
2019-01-30T00:13:45.298Z,-0.6
2019-01-30T00:14:47.864Z,-0.6
2019-01-30T00:15:57.772Z,-0.6
2019-01-30T00:17:00.389Z,-0.6
2019-01-30T00:18:03.100Z,-0.6
2019-01-30T00:19:06.652Z,-0.6
2019-01-30T00:20:09.239Z,-0.6
2019-01-30T00:21:11.558Z,-0.6
2019-01-30T00:22:14.397Z,-0.6
2019-01-30T00:23:17.480Z,-0.6
2019-01-30T00:24:21.178Z,-0.6
2019-01-30T00:25:26.104Z,-0.6
2019-01-30T00:26:28.490Z,-0.7
2019-01-30T00:27:32.045Z,-0.7
2019-01-30T00:28:35.074Z,-0.7
2019-01-30T00:29:39.729Z,-0.7
2019-01-30T00:30:43.077Z,-0.7
2019-01-30T00:31:46.534Z,-0.7
2019-01-30T00:32:50.378Z,-0.7
2019-01-30T00:33:55.628Z,-0.7
2019-01-30T00:34:58.838Z,-0.6
2019-01-30T00:36:02.107Z,-0.6
2019-01-30T00:37:05.082Z,-0.7
2019-01-30T00:38:08.579Z,-0.7
2019-01-30T00:39:12.484Z,-0.7
2019-01-30T00:40:16.104Z,-0.7
2019-01-30T00:41:19.681Z,-0.7
2019-01-30T00:42:22.570Z,-0.7
2019-01-30T00:43:26.232Z,-0.7
2019-01-30T00:44:29.871Z,-0.7
2019-01-30T00:45:32.865Z,-0.7
2019-01-30T00:46:36.484Z,-0.7
2019-01-30T00:47:40.461Z,-0.7
2019-01-30T00:48:45.071Z,-0.7
2019-01-30T00:49:48.355Z,-0.7
2019-01-30T00:50:51.347Z,-0.7
2019-01-30T00:51:54.020Z,-0.7
2019-01-30T00:52:57.495Z,-0.7
2019-01-30T00:54:00.221Z,-0.7
2019-01-30T00:55:03.557Z,-0.7
2019-01-30T00:56:06.200Z,-0.7
2019-01-30T00:57:10.138Z,-0.7
2019-01-30T00:58:12.896Z,-0.7
2019-01-30T00:59:16.808Z,-0.7
2019-01-30T01:00:20.558Z,-0.7
2019-01-30T01:01:24.673Z,-0.7
2019-01-30T01:02:28.526Z,-0.7
2019-01-30T01:03:32.092Z,-0.7
2019-01-30T01:04:36.297Z,-0.7
2019-01-30T01:05:39.354Z,-0.7
2019-01-30T01:06:41.644Z,-0.7
2019-01-30T01:07:44.509Z,-0.7
2019-01-30T01:08:47.867Z,-0.8
2019-01-30T01:09:51.883Z,-0.8
2019-01-30T01:10:54.977Z,-0.8
2019-01-30T01:11:58.053Z,-0.8
2019-01-30T01:13:01.044Z,-0.8
2019-01-30T01:14:05.620Z,-0.8
2019-01-30T01:15:09.533Z,-0.7
2019-01-30T01:16:12.930Z,-0.7
2019-01-30T01:17:15.731Z,-0.8
2019-01-30T01:18:22.474Z,-0.8
2019-01-30T01:19:25.190Z,-0.8
2019-01-30T01:20:28.013Z,-0.8
2019-01-30T01:21:31.835Z,-0.8
2019-01-30T01:22:35.193Z,-0.8
2019-01-30T01:23:37.988Z,-0.8
2019-01-30T01:24:41.179Z,-0.8
2019-01-30T01:25:43.792Z,-0.8
2019-01-30T01:26:46.164Z,-0.8
2019-01-30T01:27:48.782Z,-0.8
2019-01-30T01:28:51.282Z,-0.8
2019-01-30T01:29:54.741Z,-0.8
2019-01-30T01:30:58.029Z,-0.8
2019-01-30T01:32:01.860Z,-0.8
2019-01-30T01:33:04.881Z,-0.8
2019-01-30T01:34:07.902Z,-0.8
2019-01-30T01:35:10.257Z,-0.8
2019-01-30T01:36:13.828Z,-0.8
2019-01-30T01:37:16.246Z,-0.8
2019-01-30T01:38:20.945Z,-0.8
2019-01-30T01:39:23.798Z,-0.9
2019-01-30T01:40:27.928Z,-0.9
2019-01-30T01:41:30.869Z,-0.9
2019-01-30T01:42:34.391Z,-0.9
2019-01-30T01:43:37.907Z,-0.8
2019-01-30T01:44:40.867Z,-0.9
2019-01-30T01:45:44.997Z,-0.9
2019-01-30T01:46:48.030Z,-0.9
2019-01-30T01:47:52.218Z,-0.9
2019-01-30T01:48:55.547Z,-0.9
2019-01-30T01:49:57.832Z,-0.9
2019-01-30T01:51:01.077Z,-0.9
2019-01-30T01:52:05.253Z,-1
2019-01-30T01:53:08.703Z,-0.9
2019-01-30T01:54:11.164Z,-0.9
2019-01-30T01:55:14.572Z,-0.9
2019-01-30T01:56:17.424Z,-0.9
2019-01-30T01:57:20.634Z,-0.9
2019-01-30T01:58:23.202Z,-0.9
2019-01-30T01:59:25.772Z,-0.9
2019-01-30T02:00:37.125Z,-0.9
2019-01-30T02:01:40.254Z,-0.9
2019-01-30T02:02:44.114Z,-0.9
2019-01-30T02:03:49.159Z,-1
2019-01-30T02:04:52.229Z,-0.9
2019-01-30T02:05:55.954Z,-0.9
2019-01-30T02:06:58.217Z,-1
2019-01-30T02:08:01.111Z,-1
2019-01-30T02:09:04.319Z,-1
2019-01-30T02:10:07.510Z,-1
2019-01-30T02:11:09.771Z,-1
2019-01-30T02:12:13.930Z,-1
2019-01-30T02:13:17.477Z,-1
2019-01-30T02:14:20.034Z,-1
2019-01-30T02:15:23.892Z,-1
2019-01-30T02:16:26.326Z,-1
2019-01-30T02:17:28.448Z,-1
2019-01-30T02:18:30.550Z,-1
2019-01-30T02:19:32.668Z,-1
2019-01-30T02:20:35.070Z,-1
2019-01-30T02:21:37.188Z,-1
2019-01-30T02:22:39.287Z,-1
2019-01-30T02:23:41.771Z,-1
2019-01-30T02:24:44.268Z,-1
2019-01-30T02:25:46.382Z,-1.1
2019-01-30T02:26:48.497Z,-1.1
2019-01-30T02:27:50.618Z,-1.1
2019-01-30T02:28:52.720Z,-1.1
2019-01-30T02:29:54.849Z,-1.1
2019-01-30T02:30:57.407Z,-1.1
2019-01-30T02:32:00.086Z,-1.1
2019-01-30T02:33:02.226Z,-1.1
2019-01-30T02:34:04.347Z,-1.1
2019-01-30T02:35:06.453Z,-1.1
2019-01-30T02:36:08.572Z,-1.1
2019-01-30T02:37:10.684Z,-1
2019-01-30T02:38:12.814Z,-1.1
2019-01-30T02:39:14.925Z,-1
2019-01-30T02:40:17.177Z,-1
2019-01-30T02:41:19.301Z,-1.1
2019-01-30T02:42:21.395Z,-1.1
2019-01-30T02:43:23.522Z,-1
2019-01-30T02:44:25.637Z,-1
2019-01-30T02:45:27.756Z,-1
2019-01-30T02:46:29.847Z,-1
2019-01-30T02:47:32.409Z,-1
2019-01-30T02:48:34.510Z,-1.1
2019-01-30T02:49:36.610Z,-1.1
2019-01-30T02:50:38.765Z,-1.1
2019-01-30T02:51:41.162Z,-1.1
2019-01-30T02:52:43.293Z,-1.1
2019-01-30T02:53:45.697Z,-1.1
2019-01-30T02:54:48.199Z,-1.1
2019-01-30T02:55:50.595Z,-1.2
2019-01-30T02:56:52.714Z,-1.1
2019-01-30T02:57:55.209Z,-1.2
2019-01-30T02:58:57.314Z,-1.1
2019-01-30T02:59:59.586Z,-1.2
2019-01-30T03:01:01.715Z,-1.2
2019-01-30T03:02:04.104Z,-1.2
2019-01-30T03:03:06.235Z,-1.2
2019-01-30T03:04:08.399Z,-1.2
2019-01-30T03:05:10.494Z,-1.2
2019-01-30T03:06:13.300Z,-1.2
2019-01-30T03:07:15.390Z,-1.2
2019-01-30T03:08:17.851Z,-1.2
2019-01-30T03:09:20.065Z,-1.2
2019-01-30T03:10:22.229Z,-1.2
2019-01-30T03:11:24.324Z,-1.3
2019-01-30T03:12:26.440Z,-1.3
2019-01-30T03:13:28.601Z,-1.3
2019-01-30T03:14:30.696Z,-1.3
2019-01-30T03:15:33.125Z,-1.3
2019-01-30T03:16:35.306Z,-1.3
2019-01-30T03:17:37.427Z,-1.3
2019-01-30T03:18:39.930Z,-1.3
2019-01-30T03:19:42.066Z,-1.3
2019-01-30T03:20:44.724Z,-1.3
2019-01-30T03:21:46.848Z,-1.3
2019-01-30T03:22:48.971Z,-1.3
2019-01-30T03:23:51.077Z,-1.3
2019-01-30T03:24:53.195Z,-1.3
2019-01-30T03:25:55.316Z,-1.3
2019-01-30T03:26:57.409Z,-1.3
2019-01-30T03:27:59.530Z,-1.3
2019-01-30T03:29:01.686Z,-1.3
2019-01-30T03:30:04.907Z,-1.3
2019-01-30T03:31:20.689Z,-1.3
2019-01-30T03:32:23.123Z,-1.3
2019-01-30T03:33:25.888Z,-1.3
2019-01-30T03:34:28.318Z,-1.3
2019-01-30T03:35:30.441Z,-1.3
2019-01-30T03:36:32.553Z,-1.3
2019-01-30T03:37:34.682Z,-1.4
2019-01-30T03:38:36.809Z,-1.4
2019-01-30T03:39:38.905Z,-1.3
2019-01-30T03:40:41.314Z,-1.3
2019-01-30T03:41:43.438Z,-1.3
2019-01-30T03:42:45.549Z,-1.3
2019-01-30T03:43:47.923Z,-1.3
2019-01-30T03:44:50.091Z,-1.3
2019-01-30T03:45:52.194Z,-1.3
2019-01-30T03:46:54.301Z,-1.3
2019-01-30T03:47:56.413Z,-1.3
2019-01-30T03:48:58.564Z,-1.3
2019-01-30T03:50:00.766Z,-1.3
2019-01-30T03:51:03.177Z,-1.3
2019-01-30T03:52:05.638Z,-1.3
2019-01-30T03:53:07.805Z,-1.3
2019-01-30T03:54:09.904Z,-1.3
2019-01-30T03:55:12.019Z,-1.3
2019-01-30T03:56:14.287Z,-1.3
2019-01-30T03:57:16.416Z,-1.3
2019-01-30T03:58:18.826Z,-1.3
2019-01-30T03:59:21.292Z,-1.3
2019-01-30T04:00:23.399Z,-1.3
2019-01-30T04:01:28.008Z,-1.3
2019-01-30T04:02:30.578Z,-1.3
2019-01-30T04:03:32.685Z,-1.3
2019-01-30T04:04:34.815Z,-1.3
2019-01-30T04:05:37.208Z,-1.3
2019-01-30T04:06:39.312Z,-1.3
2019-01-30T04:07:41.438Z,-1.3
2019-01-30T04:08:43.879Z,-1.3
2019-01-30T04:09:45.985Z,-1.3
2019-01-30T04:10:48.102Z,-1.3
2019-01-30T04:11:50.220Z,-1.3
2019-01-30T04:12:52.628Z,-1.3
2019-01-30T04:13:54.764Z,-1.3
2019-01-30T04:14:56.874Z,-1.3
2019-01-30T04:15:58.991Z,-1.3
2019-01-30T04:17:01.091Z,-1.3
2019-01-30T04:18:03.219Z,-1.3
2019-01-30T04:19:05.327Z,-1.3
2019-01-30T04:20:07.446Z,-1.3
2019-01-30T04:21:09.957Z,-1.3
2019-01-30T04:22:12.047Z,-1.3
2019-01-30T04:23:14.186Z,-1.3
2019-01-30T04:24:16.694Z,-1.3
2019-01-30T04:25:19.507Z,-1.3
2019-01-30T04:26:21.599Z,-1.3
2019-01-30T04:27:23.715Z,-1.3
2019-01-30T04:28:25.823Z,-1.3
2019-01-30T04:29:28.224Z,-1.3
2019-01-30T04:30:30.950Z,-1.2
2019-01-30T04:31:39.654Z,-1.2
2019-01-30T04:32:41.760Z,-1.3
2019-01-30T04:33:43.882Z,-1.3
2019-01-30T04:34:45.989Z,-1.3
2019-01-30T04:35:48.648Z,-1.3
2019-01-30T04:36:50.780Z,-1.3
2019-01-30T04:37:52.911Z,-1.3
2019-01-30T04:38:55.302Z,-1.3
2019-01-30T04:39:57.808Z,-1.3
2019-01-30T04:41:00.021Z,-1.3
2019-01-30T04:42:02.127Z,-1.3
2019-01-30T04:43:04.304Z,-1.3
2019-01-30T04:44:06.413Z,-1.3
2019-01-30T04:45:08.588Z,-1.3
2019-01-30T04:46:10.713Z,-1.3
2019-01-30T04:47:12.848Z,-1.3
2019-01-30T04:48:14.962Z,-1.3
2019-01-30T04:49:17.071Z,-1.3
2019-01-30T04:50:19.627Z,-1.3
2019-01-30T04:51:21.735Z,-1.3
2019-01-30T04:52:23.856Z,-1.3
2019-01-30T04:53:26.410Z,-1.3
2019-01-30T04:54:28.789Z,-1.3
2019-01-30T04:55:31.201Z,-1.3
2019-01-30T04:56:33.582Z,-1.3
2019-01-30T04:57:35.981Z,-1.3
2019-01-30T04:58:38.107Z,-1.4
2019-01-30T04:59:40.536Z,-1.4
2019-01-30T05:00:42.943Z,-1.4
2019-01-30T05:01:51.159Z,-1.4
2019-01-30T05:02:53.568Z,-1.4
2019-01-30T05:03:55.657Z,-1.4
2019-01-30T05:04:57.780Z,-1.4
2019-01-30T05:05:59.901Z,-1.4
2019-01-30T05:07:02.033Z,-1.4
2019-01-30T05:08:04.154Z,-1.4
2019-01-30T05:09:06.269Z,-1.4
2019-01-30T05:10:08.981Z,-1.4
2019-01-30T05:11:11.092Z,-1.4
2019-01-30T05:12:13.491Z,-1.4
2019-01-30T05:13:15.997Z,-1.4
2019-01-30T05:14:18.412Z,-1.4
2019-01-30T05:15:21.347Z,-1.4
2019-01-30T05:16:23.788Z,-1.4
2019-01-30T05:17:25.967Z,-1.4
2019-01-30T05:18:28.078Z,-1.4
2019-01-30T05:19:30.467Z,-1.4
2019-01-30T05:20:32.923Z,-1.4
2019-01-30T05:21:35.331Z,-1.4
2019-01-30T05:22:37.449Z,-1.4
2019-01-30T05:23:40.016Z,-1.4
2019-01-30T05:24:42.121Z,-1.4
2019-01-30T05:25:44.514Z,-1.5
2019-01-30T05:26:46.634Z,-1.5
2019-01-30T05:27:49.250Z,-1.5
2019-01-30T05:28:51.378Z,-1.5
2019-01-30T05:29:53.476Z,-1.5
2019-01-30T05:30:55.971Z,-1.5
2019-01-30T05:32:02.626Z,-1.5
2019-01-30T05:33:04.758Z,-1.5
2019-01-30T05:34:07.159Z,-1.5
2019-01-30T05:35:09.275Z,-1.5
2019-01-30T05:36:11.770Z,-1.5
2019-01-30T05:37:13.873Z,-1.5
2019-01-30T05:38:16.001Z,-1.5
2019-01-30T05:39:18.109Z,-1.5
2019-01-30T05:40:20.230Z,-1.5
2019-01-30T05:41:22.336Z,-1.5
2019-01-30T05:42:24.831Z,-1.5
2019-01-30T05:43:26.959Z,-1.5
2019-01-30T05:44:29.058Z,-1.5
2019-01-30T05:45:31.242Z,-1.5
2019-01-30T05:46:33.365Z,-1.5
2019-01-30T05:47:35.470Z,-1.5
2019-01-30T05:48:37.980Z,-1.5
2019-01-30T05:49:40.121Z,-1.5
2019-01-30T05:50:42.547Z,-1.5
2019-01-30T05:51:44.688Z,-1.5
2019-01-30T05:52:47.187Z,-1.5
2019-01-30T05:53:49.286Z,-1.5
2019-01-30T05:54:51.404Z,-1.5
2019-01-30T05:55:53.513Z,-1.5
2019-01-30T05:56:55.649Z,-1.5
2019-01-30T05:57:58.033Z,-1.5
2019-01-30T05:59:00.431Z,-1.5
2019-01-30T06:00:02.641Z,-1.5
2019-01-30T06:01:05.038Z,-1.5
2019-01-30T06:02:16.182Z,-1.5
2019-01-30T06:03:18.293Z,-1.5
2019-01-30T06:04:20.437Z,-1.5
2019-01-30T06:05:22.602Z,-1.5
2019-01-30T06:06:24.728Z,-1.4
2019-01-30T06:07:26.831Z,-1.4
2019-01-30T06:08:28.937Z,-1.4
2019-01-30T06:09:31.066Z,-1.4
2019-01-30T06:10:33.465Z,-1.4
2019-01-30T06:11:35.608Z,-1.4
2019-01-30T06:12:37.894Z,-1.4
2019-01-30T06:13:40.342Z,-1.4
2019-01-30T06:14:42.846Z,-1.4
2019-01-30T06:15:44.958Z,-1.4
2019-01-30T06:16:47.079Z,-1.4
2019-01-30T06:17:49.637Z,-1.4
2019-01-30T06:18:51.744Z,-1.4
2019-01-30T06:19:53.847Z,-1.4
2019-01-30T06:20:56.235Z,-1.4
2019-01-30T06:21:58.332Z,-1.4
2019-01-30T06:23:02.897Z,-1.4
2019-01-30T06:24:05.037Z,-1.4
2019-01-30T06:25:07.841Z,-1.4
2019-01-30T06:26:10.968Z,-1.2
2019-01-30T06:27:13.595Z,-1.2
2019-01-30T06:28:15.725Z,-1.2
2019-01-30T06:29:17.842Z,-1.3
2019-01-30T06:30:19.970Z,-1.3
2019-01-30T06:31:22.642Z,-1.2
2019-01-30T06:32:24.766Z,-1.2
2019-01-30T06:33:26.871Z,-1.3
2019-01-30T06:34:29.640Z,-1.3
2019-01-30T06:35:32.086Z,-1.3
2019-01-30T06:36:34.304Z,-1.3
2019-01-30T06:37:36.416Z,-1.3
2019-01-30T06:38:38.794Z,-1.3
2019-01-30T06:39:41.297Z,-1.3
2019-01-30T06:40:43.400Z,-1.3
2019-01-30T06:41:45.509Z,-1.3
2019-01-30T06:42:47.618Z,-1.3
2019-01-30T06:43:49.714Z,-1.3
2019-01-30T06:44:51.829Z,-1.3
2019-01-30T06:45:53.938Z,-1.3
2019-01-30T06:46:56.029Z,-1.3
2019-01-30T06:47:58.135Z,-1.3
2019-01-30T06:49:00.549Z,-1.4
2019-01-30T06:50:02.664Z,-1.3
2019-01-30T06:51:04.781Z,-1.3
2019-01-30T06:52:07.568Z,-1.3
2019-01-30T06:53:09.658Z,-1.3
2019-01-30T06:54:11.758Z,-1.3
2019-01-30T06:55:13.885Z,-1.3
2019-01-30T06:56:16.363Z,-1.3
2019-01-30T06:57:19.065Z,-1.3
2019-01-30T06:58:21.181Z,-1.3
2019-01-30T06:59:23.299Z,-1.3
2019-01-30T07:00:26.112Z,-1.3
2019-01-30T07:01:28.602Z,-1.3
2019-01-30T07:02:33.641Z,-1.3
2019-01-30T07:03:36.022Z,-1.3
2019-01-30T07:04:38.149Z,-1.3
2019-01-30T07:05:40.336Z,-1.3
2019-01-30T07:06:42.438Z,-1.3
2019-01-30T07:07:44.569Z,-1.3
2019-01-30T07:08:46.669Z,-1.3
2019-01-30T07:09:48.787Z,-1.3
2019-01-30T07:10:50.896Z,-1.2
2019-01-30T07:11:53.007Z,-1.1
2019-01-30T07:12:55.108Z,-1
2019-01-30T07:13:57.505Z,-1.1
2019-01-30T07:14:59.609Z,-1
2019-01-30T07:16:01.715Z,-1.1
2019-01-30T07:17:04.118Z,-1.1
2019-01-30T07:18:06.224Z,-1.1
2019-01-30T07:19:08.350Z,-1
2019-01-30T07:20:10.481Z,-1
2019-01-30T07:21:12.587Z,-1
2019-01-30T07:22:14.987Z,-1
2019-01-30T07:23:17.100Z,-1
2019-01-30T07:24:19.200Z,-1
2019-01-30T07:25:21.696Z,-1
2019-01-30T07:26:23.824Z,-1
2019-01-30T07:27:25.926Z,-0.9
2019-01-30T07:28:28.028Z,-0.9
2019-01-30T07:29:30.164Z,-0.9
2019-01-30T07:30:32.377Z,-0.9
2019-01-30T07:31:34.476Z,-0.9
2019-01-30T07:32:43.485Z,-0.9
2019-01-30T07:33:45.584Z,-0.9
2019-01-30T07:34:47.705Z,-0.8
2019-01-30T07:35:50.099Z,-0.7
2019-01-30T07:36:52.216Z,-0.8
2019-01-30T07:37:54.606Z,-0.8
2019-01-30T07:38:56.701Z,-0.8
2019-01-30T07:39:58.807Z,-0.9
2019-01-30T07:41:00.945Z,-0.9
2019-01-30T07:42:03.057Z,-0.9
2019-01-30T07:43:05.323Z,-0.9
2019-01-30T07:44:07.458Z,-0.9
2019-01-30T07:45:09.570Z,-0.9
2019-01-30T07:46:12.048Z,-1
2019-01-30T07:47:14.162Z,-0.9
2019-01-30T07:48:16.573Z,-1
2019-01-30T07:49:18.687Z,-0.9
2019-01-30T07:50:21.102Z,-0.9
2019-01-30T07:51:23.212Z,-0.9
2019-01-30T07:52:25.384Z,-0.9
2019-01-30T07:53:27.807Z,-1
2019-01-30T07:54:29.942Z,-1
2019-01-30T07:55:32.396Z,-0.9
2019-01-30T07:56:34.614Z,-0.9
2019-01-30T07:57:36.721Z,-0.9
2019-01-30T07:58:38.840Z,-0.9
2019-01-30T07:59:41.006Z,-0.9
2019-01-30T08:00:43.118Z,-0.9
2019-01-30T08:01:45.253Z,-0.9
2019-01-30T08:02:54.729Z,-0.9
2019-01-30T08:03:56.856Z,-0.9
2019-01-30T08:04:58.981Z,-0.9
2019-01-30T08:06:01.494Z,-0.9
2019-01-30T08:07:04.297Z,-0.9
2019-01-30T08:08:06.805Z,-0.8
2019-01-30T08:09:08.911Z,-0.8
2019-01-30T08:10:11.407Z,-0.8
2019-01-30T08:11:13.509Z,-0.8
2019-01-30T08:12:15.913Z,-0.8
2019-01-30T08:13:18.033Z,-0.8
2019-01-30T08:14:20.139Z,-0.7
2019-01-30T08:15:22.244Z,-0.7
2019-01-30T08:16:24.360Z,-0.7
2019-01-30T08:17:26.876Z,-0.7
2019-01-30T08:18:29.274Z,-0.6
2019-01-30T08:19:31.366Z,-0.6
2019-01-30T08:20:33.485Z,-0.6
2019-01-30T08:21:35.590Z,-0.6
2019-01-30T08:22:37.700Z,-0.6
2019-01-30T08:23:42.017Z,-0.6
2019-01-30T08:24:46.562Z,-0.6
2019-01-30T08:25:51.221Z,-0.6
2019-01-30T08:26:55.457Z,-0.6
2019-01-30T08:27:59.920Z,-0.5
2019-01-30T08:29:04.703Z,-0.5
2019-01-30T08:30:09.341Z,-0.5
2019-01-30T08:31:14.132Z,-0.5
2019-01-30T08:32:18.619Z,-0.5
2019-01-30T08:33:23.042Z,-0.4
2019-01-30T08:34:25.451Z,-0.4
2019-01-30T08:35:28.219Z,-0.4
2019-01-30T08:36:30.345Z,-0.4
2019-01-30T08:37:32.768Z,-0.4
2019-01-30T08:38:34.872Z,-0.4
2019-01-30T08:39:37.077Z,-0.3
2019-01-30T08:40:39.756Z,-0.3
2019-01-30T08:41:41.876Z,-0.3
2019-01-30T08:42:45.090Z,-0.3
2019-01-30T08:43:47.514Z,-0.3
2019-01-30T08:44:49.765Z,-0.2
2019-01-30T08:45:52.006Z,-0.1
2019-01-30T08:46:54.120Z,-0.1
2019-01-30T08:47:56.498Z,-0.1
2019-01-30T08:48:58.632Z,-0.1
2019-01-30T08:50:00.930Z,0
2019-01-30T08:51:03.161Z,0
2019-01-30T08:52:05.301Z,0
2019-01-30T08:53:08.095Z,0
2019-01-30T08:54:10.207Z,0
2019-01-30T08:55:12.313Z,0.1
2019-01-30T08:56:14.426Z,0.1
2019-01-30T08:57:16.648Z,0.1
2019-01-30T08:58:18.746Z,0.1
2019-01-30T08:59:20.867Z,0.2
2019-01-30T09:00:23.003Z,0.2
2019-01-30T09:01:25.423Z,0.2
2019-01-30T09:02:27.529Z,0.2
2019-01-30T09:03:29.652Z,0.3
2019-01-30T09:04:31.754Z,0.3
2019-01-30T09:05:33.986Z,0.3
2019-01-30T09:06:36.116Z,0.3
2019-01-30T09:07:45.945Z,0.4
2019-01-30T09:08:48.047Z,0.6
2019-01-30T09:09:50.306Z,0.6
2019-01-30T09:10:52.410Z,0.6
2019-01-30T09:11:54.511Z,0.6
2019-01-30T09:12:56.650Z,0.6
2019-01-30T09:13:58.743Z,0.6
2019-01-30T09:15:00.887Z,0.6
2019-01-30T09:16:03.020Z,0.7
2019-01-30T09:17:09.732Z,0.7
2019-01-30T09:18:11.823Z,0.8
2019-01-30T09:19:14.015Z,0.8
2019-01-30T09:20:16.135Z,0.8
2019-01-30T09:21:18.242Z,0.8
2019-01-30T09:22:20.435Z,0.9
2019-01-30T09:23:22.555Z,1
2019-01-30T09:24:24.666Z,1
2019-01-30T09:25:27.190Z,1
2019-01-30T09:26:29.325Z,1.1
2019-01-30T09:27:31.425Z,1.1
2019-01-30T09:28:33.544Z,1.2
2019-01-30T09:29:35.676Z,1.2
2019-01-30T09:30:37.785Z,1.2
2019-01-30T09:31:39.916Z,1.2
2019-01-30T09:32:42.038Z,1.2
2019-01-30T09:33:44.673Z,1.2
2019-01-30T09:34:46.844Z,1.2
2019-01-30T09:35:49.040Z,1.3
2019-01-30T09:36:51.937Z,1.3
2019-01-30T09:37:54.502Z,1.3
2019-01-30T09:38:56.663Z,1.3
2019-01-30T09:39:58.781Z,1.5
2019-01-30T09:41:00.947Z,1.5
2019-01-30T09:42:03.177Z,1.4
2019-01-30T09:43:05.292Z,1.4
2019-01-30T09:44:07.548Z,1.5
2019-01-30T09:45:11.448Z,1.6
2019-01-30T09:46:13.553Z,1.6
2019-01-30T09:47:16.163Z,1.7
2019-01-30T09:48:18.332Z,1.6
2019-01-30T09:49:20.470Z,1.6
2019-01-30T09:50:22.777Z,1.6
2019-01-30T09:51:24.955Z,1.7
2019-01-30T09:52:28.820Z,1.7
2019-01-30T09:53:30.936Z,1.8
2019-01-30T09:54:33.157Z,1.8
2019-01-30T09:55:35.383Z,1.9
2019-01-30T09:56:38.015Z,1.8
2019-01-30T09:57:40.135Z,2
2019-01-30T09:58:42.262Z,2
2019-01-30T09:59:44.410Z,2
2019-01-30T10:00:46.542Z,2.2
2019-01-30T10:01:48.763Z,2.3
2019-01-30T10:02:51.238Z,2.5
2019-01-30T10:03:53.398Z,2.5
2019-01-30T10:04:55.529Z,2.5
2019-01-30T10:05:57.651Z,2.6
2019-01-30T10:06:59.793Z,2.7
2019-01-30T10:08:02.210Z,2.9
2019-01-30T10:09:04.712Z,2.8
2019-01-30T10:10:06.865Z,2.7
2019-01-30T10:11:09.303Z,2.8
2019-01-30T10:12:11.706Z,2.8
2019-01-30T10:13:13.851Z,2.8
2019-01-30T10:14:15.973Z,2.6
2019-01-30T10:15:18.387Z,2.9
2019-01-30T10:16:20.488Z,3
2019-01-30T10:17:22.616Z,3
2019-01-30T10:18:25.042Z,2.9
2019-01-30T10:19:27.154Z,3.1
2019-01-30T10:20:29.631Z,3
2019-01-30T10:21:31.742Z,3.3
2019-01-30T10:22:33.932Z,3.2
2019-01-30T10:23:36.047Z,3.1
2019-01-30T10:24:38.462Z,3.1
2019-01-30T10:25:40.585Z,3.2
2019-01-30T10:26:42.711Z,3.4
2019-01-30T10:27:44.890Z,3.7
2019-01-30T10:28:47.326Z,3.7
2019-01-30T10:29:49.455Z,3.9
2019-01-30T10:30:51.584Z,3.6
2019-01-30T10:31:53.809Z,3.8
2019-01-30T10:32:55.917Z,3.9
2019-01-30T10:33:58.048Z,3.7
2019-01-30T10:35:00.331Z,3.9
2019-01-30T10:36:02.463Z,4.1
2019-01-30T10:37:05.241Z,4
2019-01-30T10:38:07.390Z,3.7
2019-01-30T10:39:09.854Z,3.7
2019-01-30T10:40:12.402Z,3.9
2019-01-30T10:41:14.531Z,3.8
2019-01-30T10:42:16.640Z,3.7
2019-01-30T10:43:18.778Z,3.7
2019-01-30T10:44:21.114Z,3.5
2019-01-30T10:45:23.243Z,3.7
2019-01-30T10:46:25.369Z,3.6
2019-01-30T10:47:27.486Z,3.7
2019-01-30T10:48:29.622Z,3.7
2019-01-30T10:49:31.728Z,3.6
2019-01-30T10:50:33.865Z,3.3
2019-01-30T10:51:35.998Z,3.5
2019-01-30T10:52:38.114Z,3.8
2019-01-30T10:53:40.264Z,3.7
2019-01-30T10:54:43.052Z,3.7
2019-01-30T10:55:45.263Z,3.6
2019-01-30T10:56:47.378Z,3.8
2019-01-30T10:57:49.520Z,3.7
2019-01-30T10:58:51.628Z,3.5
2019-01-30T10:59:53.769Z,3.4
2019-01-30T11:00:55.935Z,3.4
2019-01-30T11:01:58.620Z,3.5
2019-01-30T11:03:00.752Z,3.7
2019-01-30T11:04:03.152Z,3.7
2019-01-30T11:05:05.280Z,3.8
2019-01-30T11:06:07.387Z,3.7
2019-01-30T11:07:09.519Z,3.6
2019-01-30T11:08:11.636Z,3.7
2019-01-30T11:09:13.860Z,3.7
2019-01-30T11:10:16.002Z,3.7
2019-01-30T11:11:18.153Z,3.7
2019-01-30T11:12:20.272Z,3.6
2019-01-30T11:13:22.708Z,3.5
2019-01-30T11:14:24.837Z,3.6
2019-01-30T11:15:26.949Z,3.6
2019-01-30T11:16:29.349Z,3.7
2019-01-30T11:17:31.455Z,3.6
2019-01-30T11:18:33.575Z,3.7
2019-01-30T11:19:35.702Z,3.6
2019-01-30T11:20:37.851Z,3.4
2019-01-30T11:21:39.976Z,3.5
2019-01-30T11:22:42.104Z,3.5
2019-01-30T11:23:44.216Z,3.7
2019-01-30T11:24:46.321Z,3.7
2019-01-30T11:25:48.469Z,3.4
2019-01-30T11:26:50.905Z,3.6
2019-01-30T11:27:53.038Z,3.6
2019-01-30T11:28:55.562Z,3.9
2019-01-30T11:29:57.667Z,3.7
2019-01-30T11:30:59.818Z,4
2019-01-30T11:32:01.922Z,4.2
2019-01-30T11:33:04.041Z,4.1
2019-01-30T11:34:09.005Z,4.2
2019-01-30T11:35:11.129Z,4.5
2019-01-30T11:36:13.268Z,4.4
2019-01-30T11:37:15.387Z,4.4
2019-01-30T11:38:17.520Z,4.4
2019-01-30T11:39:19.618Z,4.3
2019-01-30T11:40:21.754Z,4.4
2019-01-30T11:41:23.872Z,4.4
2019-01-30T11:42:25.981Z,4.4
2019-01-30T11:43:28.113Z,4.2
2019-01-30T11:44:30.626Z,4.4
2019-01-30T11:45:32.725Z,4.4
2019-01-30T11:46:34.832Z,4.7
2019-01-30T11:47:36.946Z,4.4
2019-01-30T11:48:39.073Z,4.1
2019-01-30T11:49:41.194Z,4.3
2019-01-30T11:50:43.337Z,4.2
2019-01-30T11:51:45.453Z,4.2
2019-01-30T11:52:47.627Z,4
2019-01-30T11:53:49.915Z,4.2
2019-01-30T11:54:52.084Z,4.2
2019-01-30T11:55:54.207Z,4.2
2019-01-30T11:56:56.525Z,4.6
2019-01-30T11:57:58.668Z,4.4
2019-01-30T11:59:00.786Z,4.3
2019-01-30T12:00:03.336Z,4.7
2019-01-30T12:01:05.857Z,4.7
2019-01-30T12:02:08.272Z,4.7
2019-01-30T12:03:11.364Z,4.6
2019-01-30T12:04:19.649Z,4.7
2019-01-30T12:05:21.757Z,4.8
2019-01-30T12:06:23.885Z,5.1
2019-01-30T12:07:26.413Z,4.8
2019-01-30T12:08:28.525Z,4.9
2019-01-30T12:09:30.660Z,4.9
2019-01-30T12:10:32.794Z,4.9
2019-01-30T12:11:35.019Z,5
2019-01-30T12:12:37.124Z,5.1
2019-01-30T12:13:39.629Z,4.9
2019-01-30T12:14:41.766Z,4.8
2019-01-30T12:15:44.176Z,4.7
2019-01-30T12:16:46.677Z,4.6
2019-01-30T12:17:49.278Z,4.4
2019-01-30T12:18:51.466Z,4.7
2019-01-30T12:19:53.600Z,4.7
2019-01-30T12:20:55.763Z,4.3
2019-01-30T12:21:57.904Z,4.8
2019-01-30T12:23:00.038Z,4.9
2019-01-30T12:24:02.190Z,4.7
2019-01-30T12:25:04.308Z,4.8
2019-01-30T12:26:06.459Z,4.6
2019-01-30T12:27:08.969Z,4.7
2019-01-30T12:28:11.096Z,4.8
2019-01-30T12:29:13.235Z,4.4
2019-01-30T12:30:15.351Z,4.6
2019-01-30T12:31:17.467Z,4.6
2019-01-30T12:32:19.598Z,4.6
2019-01-30T12:33:22.098Z,4.7
2019-01-30T12:34:29.719Z,4.6
2019-01-30T12:35:31.864Z,4.8
2019-01-30T12:36:34.017Z,4.8
2019-01-30T12:37:36.117Z,4.7
2019-01-30T12:38:38.663Z,4.7
2019-01-30T12:39:41.074Z,4.4
2019-01-30T12:40:43.197Z,4.3
2019-01-30T12:41:45.314Z,4.2
2019-01-30T12:42:47.724Z,4
2019-01-30T12:43:49.841Z,4.1
2019-01-30T12:44:51.975Z,4.1
2019-01-30T12:45:54.098Z,3.7
2019-01-30T12:46:56.241Z,3.9
2019-01-30T12:47:58.351Z,4
2019-01-30T12:49:00.464Z,3.9
2019-01-30T12:50:02.908Z,3.7
2019-01-30T12:51:05.312Z,3.7
2019-01-30T12:52:07.432Z,3.8
2019-01-30T12:53:09.870Z,3.8
2019-01-30T12:54:12.428Z,3.8
2019-01-30T12:55:15.310Z,3.8
2019-01-30T12:56:17.483Z,3.9
2019-01-30T12:57:19.597Z,3.6
2019-01-30T12:58:22.020Z,3.6
2019-01-30T12:59:24.151Z,3.7
2019-01-30T13:00:26.281Z,3.7
2019-01-30T13:01:31.317Z,3.6
2019-01-30T13:02:33.450Z,3.4
2019-01-30T13:03:35.567Z,3.4
2019-01-30T13:04:40.532Z,3.5
2019-01-30T13:05:42.975Z,3.5
2019-01-30T13:06:45.077Z,3.4
2019-01-30T13:07:47.209Z,3.2
2019-01-30T13:08:49.330Z,3.3
2019-01-30T13:09:51.451Z,3.3
2019-01-30T13:10:53.548Z,3.3
2019-01-30T13:11:55.749Z,3.3
2019-01-30T13:12:57.875Z,3.4
2019-01-30T13:13:59.986Z,3.3
2019-01-30T13:15:02.123Z,3.3
2019-01-30T13:16:04.249Z,3.3
2019-01-30T13:17:06.744Z,3.2
2019-01-30T13:18:19.890Z,3.3
2019-01-30T13:19:22.117Z,3.4
2019-01-30T13:20:24.342Z,3.5
2019-01-30T13:21:26.471Z,3.5
2019-01-30T13:22:28.594Z,3.5
2019-01-30T13:23:30.692Z,3.5
2019-01-30T13:24:32.901Z,3.5
2019-01-30T13:25:35.036Z,3.5
2019-01-30T13:26:37.150Z,3.5
2019-01-30T13:27:39.276Z,3.6
2019-01-30T13:28:41.403Z,3.6
2019-01-30T13:29:43.580Z,3.7
2019-01-30T13:30:46.548Z,3.7
2019-01-30T13:31:48.837Z,3.7
2019-01-30T13:32:50.968Z,3.8
2019-01-30T13:33:53.100Z,3.8
2019-01-30T13:34:55.235Z,3.8
2019-01-30T13:35:57.334Z,3.8
2019-01-30T13:36:59.463Z,3.7
2019-01-30T13:38:01.650Z,3.7
2019-01-30T13:39:03.759Z,3.8
2019-01-30T13:40:05.891Z,3.8
2019-01-30T13:41:08.011Z,3.8
2019-01-30T13:42:10.139Z,3.8
2019-01-30T13:43:12.258Z,3.8
2019-01-30T13:44:14.396Z,3.8
2019-01-30T13:45:16.505Z,3.6
2019-01-30T13:46:18.628Z,3.7
2019-01-30T13:47:21.032Z,3.6
2019-01-30T13:48:23.274Z,3.6
2019-01-30T13:49:25.454Z,3.5
2019-01-30T13:50:28.026Z,3.5
2019-01-30T13:51:30.257Z,3.5
2019-01-30T13:52:32.404Z,3.6
2019-01-30T13:53:37.828Z,3.7
2019-01-30T13:54:40.024Z,3.7
2019-01-30T13:55:42.214Z,3.6
2019-01-30T13:56:44.669Z,3.6
2019-01-30T13:57:46.959Z,3.5
2019-01-30T13:58:49.526Z,3.3
2019-01-30T13:59:52.142Z,3.4
2019-01-30T14:00:54.626Z,3.3
2019-01-30T14:01:57.149Z,3.3
2019-01-30T14:02:59.366Z,3.3
2019-01-30T14:04:01.685Z,3.3
2019-01-30T14:05:04.177Z,3.2
2019-01-30T14:06:07.484Z,3.1
2019-01-30T14:07:09.963Z,3.2